EZY83NP LFMT-EGKK
Flight info
| Callsign | EZY83NP |
|---|---|
| Flight time | N/A |
| Altitude | 34000 |
| Route | NG DCT MOLEN DCT MTL DCT ETREK DCT MADOT DCT MOPEM/N0445F360 DCT CACHI DCT AVLON DCT OKRIX DCT BRY DCT CLM DCT KOPOR DCT KESAX DCT KUNAV |
| Aircraft | A320/M-SDE3FGHIRWY/LB1 |
Departure
| Time | 2026-04-23 10:58 |
|---|---|
| Airport | Montpellier-Méditerranée Airport (LFMT) |
Arrival
| Time | N/A |
|---|---|
| Airport | London Gatwick Airport (EGKK) |
| Time | Latitude | Longitude | Altitude | Speed | Heading |
|---|---|---|---|---|---|
| 2026-04-23 10:31 | 43.57956 | 3.95994 | 15 ft | 0 kts | 214° |
| 2026-04-23 10:45 | 43.57970 | 3.96006 | 16 ft | 4 kts | 214° |
| 2026-04-23 10:45 | 43.57993 | 3.96026 | 16 ft | 4 kts | 203° |
| 2026-04-23 10:45 | 43.58015 | 3.96032 | 15 ft | 4 kts | 136° |
| 2026-04-23 10:45 | 43.58018 | 3.96028 | 15 ft | 0 kts | 123° |
| 2026-04-23 10:51 | 43.58006 | 3.96053 | 17 ft | 7 kts | 124° |
| 2026-04-23 10:51 | 43.57971 | 3.96130 | 15 ft | 11 kts | 112° |
| 2026-04-23 10:51 | 43.58003 | 3.96227 | 16 ft | 13 kts | 37° |
| 2026-04-23 10:52 | 43.58039 | 3.96303 | 15 ft | 10 kts | 114° |
| 2026-04-23 10:52 | 43.58000 | 3.96383 | 14 ft | 10 kts | 124° |
| 2026-04-23 10:52 | 43.57958 | 3.96468 | 14 ft | 13 kts | 124° |
| 2026-04-23 10:52 | 43.57896 | 3.96591 | 12 ft | 19 kts | 124° |
| 2026-04-23 10:53 | 43.57815 | 3.96750 | 12 ft | 21 kts | 123° |
| 2026-04-23 10:53 | 43.57733 | 3.96915 | 12 ft | 19 kts | 125° |
| 2026-04-23 10:53 | 43.57658 | 3.97064 | 15 ft | 18 kts | 124° |
| 2026-04-23 10:53 | 43.57583 | 3.97212 | 16 ft | 19 kts | 124° |
| 2026-04-23 10:54 | 43.57506 | 3.97361 | 19 ft | 19 kts | 125° |
| 2026-04-23 10:54 | 43.57427 | 3.97521 | 16 ft | 21 kts | 125° |
| 2026-04-23 10:54 | 43.57340 | 3.97695 | 15 ft | 23 kts | 124° |
| 2026-04-23 10:54 | 43.57255 | 3.97863 | 14 ft | 16 kts | 125° |
| 2026-04-23 10:55 | 43.57213 | 3.97946 | 14 ft | 16 kts | 124° |
| 2026-04-23 10:55 | 43.57177 | 3.98067 | 14 ft | 14 kts | 87° |
| 2026-04-23 10:55 | 43.57199 | 3.98126 | 16 ft | 0 kts | 45° |
| 2026-04-23 10:56 | 43.57210 | 3.98140 | 15 ft | 5 kts | 38° |
| 2026-04-23 10:56 | 43.57254 | 3.98176 | 15 ft | 8 kts | 28° |
| 2026-04-23 10:57 | 43.57298 | 3.98186 | 15 ft | 5 kts | 314° |
| 2026-04-23 10:57 | 43.57310 | 3.98154 | 16 ft | 0 kts | 303° |
| 2026-04-23 10:58 | 43.57346 | 3.98080 | 16 ft | 38 kts | 304° |
| 2026-04-23 10:58 | 43.57646 | 3.97488 | 20 ft | 108 kts | 304° |
| 2026-04-23 10:58 | 43.58187 | 3.96414 | 25 ft | 161 kts | 304° |
| 2026-04-23 10:58 | 43.58843 | 3.95136 | 702 ft | 161 kts | 312° |
| 2026-04-23 10:59 | 43.59769 | 3.94310 | 1482 ft | 165 kts | 347° |
| 2026-04-23 10:59 | 43.60974 | 3.94278 | 1776 ft | 184 kts | 21° |
| 2026-04-23 10:59 | 43.62052 | 3.95272 | 2106 ft | 196 kts | 56° |
| 2026-04-23 10:59 | 43.62845 | 3.96887 | 2463 ft | 213 kts | 61° |
| 2026-04-23 11:00 | 43.63703 | 3.98692 | 2863 ft | 237 kts | 61° |
| 2026-04-23 11:00 | 43.64657 | 4.00670 | 3439 ft | 255 kts | 60° |
| 2026-04-23 11:00 | 43.65666 | 4.02726 | 4261 ft | 261 kts | 58° |
| 2026-04-23 11:00 | 43.66714 | 4.04795 | 5177 ft | 265 kts | 55° |
| 2026-04-23 11:01 | 43.67815 | 4.06866 | 5995 ft | 271 kts | 53° |
| 2026-04-23 11:01 | 43.68963 | 4.08993 | 6728 ft | 280 kts | 51° |
| 2026-04-23 11:01 | 43.70126 | 4.11143 | 7482 ft | 286 kts | 51° |
| 2026-04-23 11:01 | 43.71335 | 4.13392 | 8276 ft | 290 kts | 50° |
| 2026-04-23 11:02 | 43.72532 | 4.15626 | 9037 ft | 296 kts | 49° |
| 2026-04-23 11:02 | 43.73764 | 4.17937 | 9799 ft | 301 kts | 48° |
| 2026-04-23 11:02 | 43.75013 | 4.20287 | 10518 ft | 307 kts | 48° |
| 2026-04-23 11:02 | 43.76321 | 4.22743 | 10816 ft | 329 kts | 48° |
| 2026-04-23 11:03 | 43.77730 | 4.25383 | 11076 ft | 350 kts | 49° |
| 2026-04-23 11:03 | 43.79185 | 4.28135 | 11649 ft | 358 kts | 49° |
| 2026-04-23 11:03 | 43.80658 | 4.30946 | 12350 ft | 363 kts | 49° |
| 2026-04-23 11:03 | 43.82144 | 4.33790 | 13126 ft | 367 kts | 49° |
| 2026-04-23 11:04 | 43.83655 | 4.36668 | 13797 ft | 371 kts | 47° |
| 2026-04-23 11:04 | 43.85399 | 4.39273 | 14416 ft | 368 kts | 36° |
| 2026-04-23 11:04 | 43.87468 | 4.41329 | 15018 ft | 365 kts | 24° |
| 2026-04-23 11:04 | 43.89760 | 4.42786 | 15639 ft | 362 kts | 15° |
| 2026-04-23 11:05 | 43.92124 | 4.44039 | 16257 ft | 365 kts | 16° |
| 2026-04-23 11:05 | 43.94505 | 4.45312 | 16861 ft | 369 kts | 16° |
| 2026-04-23 11:05 | 43.96911 | 4.46608 | 17449 ft | 372 kts | 16° |
| 2026-04-23 11:05 | 43.99337 | 4.47917 | 18068 ft | 375 kts | 17° |
| 2026-04-23 11:06 | 44.04248 | 4.50570 | 19159 ft | 382 kts | 17° |
| 2026-04-23 11:06 | 44.06738 | 4.51917 | 19681 ft | 384 kts | 17° |
| 2026-04-23 11:06 | 44.09240 | 4.53256 | 20198 ft | 387 kts | 17° |
| 2026-04-23 11:07 | 44.11767 | 4.54595 | 20704 ft | 390 kts | 17° |
| 2026-04-23 11:07 | 44.14313 | 4.55939 | 21204 ft | 393 kts | 17° |
| 2026-04-23 11:07 | 44.16877 | 4.57294 | 21700 ft | 395 kts | 17° |
| 2026-04-23 11:07 | 44.19454 | 4.58655 | 22193 ft | 398 kts | 17° |
| 2026-04-23 11:08 | 44.22051 | 4.60028 | 22681 ft | 400 kts | 17° |
| 2026-04-23 11:08 | 44.24662 | 4.61417 | 23151 ft | 403 kts | 17° |
| 2026-04-23 11:08 | 44.27291 | 4.62822 | 23616 ft | 405 kts | 17° |
| 2026-04-23 11:08 | 44.29934 | 4.64238 | 24050 ft | 408 kts | 17° |
| 2026-04-23 11:09 | 44.32586 | 4.65661 | 24417 ft | 410 kts | 17° |
| 2026-04-23 11:09 | 44.35261 | 4.67099 | 24795 ft | 413 kts | 17° |
| 2026-04-23 11:09 | 44.37948 | 4.68542 | 25170 ft | 415 kts | 17° |
| 2026-04-23 11:09 | 44.40651 | 4.69994 | 25545 ft | 417 kts | 17° |
| 2026-04-23 11:10 | 44.43360 | 4.71449 | 25907 ft | 419 kts | 17° |
| 2026-04-23 11:10 | 44.46051 | 4.72896 | 26259 ft | 421 kts | 17° |
| 2026-04-23 11:10 | 44.48789 | 4.74367 | 26614 ft | 422 kts | 17° |
| 2026-04-23 11:10 | 44.51581 | 4.75855 | 26987 ft | 424 kts | 15° |
| 2026-04-23 11:11 | 44.54420 | 4.76901 | 27339 ft | 421 kts | 6° |
| 2026-04-23 11:11 | 44.57324 | 4.77265 | 27683 ft | 419 kts | 356° |
| 2026-04-23 11:11 | 44.60182 | 4.76955 | 28024 ft | 417 kts | 348° |
| 2026-04-23 11:11 | 44.63049 | 4.76310 | 28380 ft | 419 kts | 348° |
| 2026-04-23 11:12 | 44.65933 | 4.75667 | 28738 ft | 421 kts | 348° |
| 2026-04-23 11:12 | 44.68829 | 4.75029 | 29069 ft | 422 kts | 348° |
| 2026-04-23 11:12 | 44.71740 | 4.74391 | 29392 ft | 424 kts | 348° |
| 2026-04-23 11:12 | 44.74659 | 4.73748 | 29711 ft | 425 kts | 348° |
| 2026-04-23 11:13 | 44.77590 | 4.73095 | 30007 ft | 427 kts | 348° |
| 2026-04-23 11:13 | 44.80527 | 4.72440 | 30294 ft | 429 kts | 348° |
| 2026-04-23 11:13 | 44.83483 | 4.71786 | 30551 ft | 431 kts | 348° |
| 2026-04-23 11:13 | 44.86452 | 4.71128 | 30802 ft | 432 kts | 347° |
| 2026-04-23 11:14 | 44.89429 | 4.70462 | 31050 ft | 433 kts | 347° |
| 2026-04-23 11:14 | 44.92410 | 4.69789 | 31332 ft | 434 kts | 347° |
| 2026-04-23 11:14 | 44.95387 | 4.69120 | 31704 ft | 432 kts | 347° |
| 2026-04-23 11:14 | 44.98345 | 4.68459 | 32093 ft | 430 kts | 347° |
| 2026-04-23 11:15 | 45.01296 | 4.67801 | 32469 ft | 428 kts | 347° |
| 2026-04-23 11:15 | 45.04239 | 4.67143 | 32843 ft | 427 kts | 347° |
| 2026-04-23 11:15 | 45.07171 | 4.66488 | 33196 ft | 426 kts | 347° |
| 2026-04-23 11:15 | 45.10092 | 4.65834 | 33546 ft | 424 kts | 347° |
| 2026-04-23 11:16 | 45.13004 | 4.65180 | 33916 ft | 423 kts | 347° |
| 2026-04-23 11:16 | 45.15905 | 4.64529 | 34211 ft | 423 kts | 347° |
| 2026-04-23 11:16 | 45.18794 | 4.63878 | 34257 ft | 417 kts | 346° |
| 2026-04-23 11:17 | 45.24496 | 4.62582 | 34259 ft | 414 kts | 346° |
| 2026-04-23 11:17 | 45.30179 | 4.61271 | 34261 ft | 413 kts | 346° |
| 2026-04-23 11:18 | 45.35855 | 4.59972 | 34261 ft | 413 kts | 346° |
| 2026-04-23 11:18 | 45.41531 | 4.58667 | 34265 ft | 413 kts | 346° |
| 2026-04-23 11:19 | 45.47201 | 4.57367 | 34273 ft | 413 kts | 346° |
| 2026-04-23 11:19 | 45.52878 | 4.56062 | 34270 ft | 413 kts | 346° |
| 2026-04-23 11:20 | 45.58547 | 4.54744 | 34271 ft | 413 kts | 346° |
| 2026-04-23 11:20 | 45.64220 | 4.53434 | 34267 ft | 413 kts | 346° |
| 2026-04-23 11:21 | 45.69864 | 4.52134 | 34270 ft | 413 kts | 346° |
| 2026-04-23 11:21 | 45.75538 | 4.50824 | 34263 ft | 413 kts | 346° |
| 2026-04-23 11:22 | 45.81211 | 4.49501 | 34266 ft | 413 kts | 346° |
| 2026-04-23 11:22 | 45.86891 | 4.48170 | 34269 ft | 414 kts | 346° |
| 2026-04-23 11:23 | 45.92574 | 4.46845 | 34268 ft | 414 kts | 346° |
| 2026-04-23 11:23 | 45.98264 | 4.45509 | 34268 ft | 414 kts | 347° |
| 2026-04-23 11:24 | 46.03957 | 4.44166 | 34270 ft | 415 kts | 347° |
| 2026-04-23 11:24 | 46.09649 | 4.42825 | 34263 ft | 415 kts | 347° |
| 2026-04-23 11:25 | 46.15361 | 4.41487 | 34265 ft | 415 kts | 347° |
| 2026-04-23 11:25 | 46.21068 | 4.40149 | 34269 ft | 416 kts | 347° |
| 2026-04-23 11:26 | 46.26781 | 4.38798 | 34271 ft | 416 kts | 347° |
| 2026-04-23 11:26 | 46.32455 | 4.37203 | 34263 ft | 414 kts | 343° |
| 2026-04-23 11:27 | 46.38043 | 4.35172 | 34267 ft | 413 kts | 342° |
| 2026-04-23 11:27 | 46.43614 | 4.33081 | 34264 ft | 414 kts | 342° |
| 2026-04-23 11:28 | 46.49205 | 4.31073 | 34268 ft | 414 kts | 343° |
| 2026-04-23 11:28 | 46.54808 | 4.29123 | 34265 ft | 414 kts | 343° |
| 2026-04-23 11:29 | 46.60416 | 4.27167 | 34267 ft | 415 kts | 343° |
| 2026-04-23 11:29 | 46.66025 | 4.25194 | 34264 ft | 415 kts | 343° |
| 2026-04-23 11:30 | 46.71629 | 4.23200 | 34269 ft | 415 kts | 343° |
| 2026-04-23 11:30 | 46.77238 | 4.21200 | 34270 ft | 415 kts | 343° |
| 2026-04-23 11:31 | 46.82809 | 4.19216 | 34271 ft | 415 kts | 343° |
| 2026-04-23 11:31 | 46.88422 | 4.17216 | 34267 ft | 415 kts | 343° |
| 2026-04-23 11:32 | 46.94078 | 4.15188 | 34285 ft | 424 kts | 347° |
| 2026-04-23 11:32 | 46.99909 | 4.13099 | 34285 ft | 430 kts | 347° |
| 2026-04-23 11:33 | 47.05695 | 4.11016 | 34286 ft | 431 kts | 346° |
| 2026-04-23 11:33 | 47.11366 | 4.07904 | 34289 ft | 433 kts | 339° |
| 2026-04-23 11:34 | 47.16961 | 4.04591 | 34289 ft | 434 kts | 339° |
| 2026-04-23 11:34 | 47.22560 | 4.01280 | 34277 ft | 434 kts | 339° |
| 2026-04-23 11:35 | 47.28169 | 3.97967 | 34275 ft | 435 kts | 339° |
| 2026-04-23 11:35 | 47.33784 | 3.94631 | 34270 ft | 436 kts | 339° |
| 2026-04-23 11:36 | 47.38458 | 3.91843 | 34267 ft | 436 kts | 340° |
| 2026-04-23 11:36 | 47.45008 | 3.87927 | 34265 ft | 438 kts | 339° |
| 2026-04-23 11:37 | 47.49744 | 3.85087 | 34264 ft | 439 kts | 340° |
| 2026-04-23 11:37 | 47.55405 | 3.81686 | 34262 ft | 440 kts | 340° |
| 2026-04-23 11:38 | 47.61086 | 3.78278 | 34267 ft | 441 kts | 340° |
| 2026-04-23 11:38 | 47.66785 | 3.74853 | 34269 ft | 442 kts | 340° |
| 2026-04-23 11:39 | 47.72491 | 3.71408 | 34275 ft | 443 kts | 339° |
| 2026-04-23 11:39 | 47.78204 | 3.67943 | 34280 ft | 444 kts | 339° |
| 2026-04-23 11:40 | 47.83926 | 3.64471 | 34284 ft | 445 kts | 339° |
| 2026-04-23 11:40 | 47.89664 | 3.60987 | 34282 ft | 445 kts | 339° |
| 2026-04-23 11:41 | 47.95403 | 3.57487 | 34283 ft | 446 kts | 339° |
| 2026-04-23 11:41 | 48.01147 | 3.53969 | 34285 ft | 447 kts | 339° |
| 2026-04-23 11:42 | 48.06897 | 3.50441 | 34286 ft | 447 kts | 339° |
| 2026-04-23 11:42 | 48.12658 | 3.46882 | 34296 ft | 448 kts | 339° |
| 2026-04-23 11:43 | 48.18426 | 3.43316 | 34301 ft | 449 kts | 339° |
| 2026-04-23 11:43 | 48.24199 | 3.39749 | 34300 ft | 449 kts | 339° |
| 2026-04-23 11:44 | 48.29979 | 3.36170 | 34308 ft | 449 kts | 339° |
| 2026-04-23 11:44 | 48.35761 | 3.32582 | 34312 ft | 450 kts | 339° |
| 2026-04-23 11:45 | 48.41507 | 3.28992 | 34309 ft | 451 kts | 339° |
| 2026-04-23 11:45 | 48.47295 | 3.25322 | 34311 ft | 452 kts | 339° |
| 2026-04-23 11:46 | 48.53081 | 3.21604 | 34310 ft | 453 kts | 339° |
| 2026-04-23 11:46 | 48.58880 | 3.17871 | 34311 ft | 453 kts | 339° |
| 2026-04-23 11:47 | 48.64695 | 3.14141 | 34320 ft | 454 kts | 339° |
| 2026-04-23 11:47 | 48.70516 | 3.10408 | 34329 ft | 455 kts | 339° |
| 2026-04-23 11:48 | 48.76346 | 3.06649 | 34326 ft | 455 kts | 339° |
| 2026-04-23 11:48 | 48.82178 | 3.02873 | 34326 ft | 456 kts | 339° |
| 2026-04-23 11:49 | 48.87839 | 2.98474 | 34341 ft | 458 kts | 332° |
| 2026-04-23 11:49 | 48.93237 | 2.93757 | 34337 ft | 459 kts | 332° |
| 2026-04-23 11:50 | 48.98769 | 2.88899 | 34338 ft | 460 kts | 332° |
| 2026-04-23 11:50 | 49.04309 | 2.84029 | 34337 ft | 460 kts | 332° |
| 2026-04-23 11:51 | 49.09857 | 2.79143 | 34336 ft | 461 kts | 332° |
| 2026-04-23 11:51 | 49.15410 | 2.74232 | 34340 ft | 461 kts | 332° |
| 2026-04-23 11:52 | 49.20973 | 2.69321 | 34345 ft | 461 kts | 332° |
| 2026-04-23 11:52 | 49.26524 | 2.64411 | 34351 ft | 462 kts | 331° |
| 2026-04-23 11:53 | 49.32078 | 2.59465 | 34358 ft | 461 kts | 331° |
| 2026-04-23 11:53 | 49.37624 | 2.54502 | 34366 ft | 462 kts | 331° |
| 2026-04-23 11:54 | 49.43173 | 2.49542 | 34373 ft | 462 kts | 331° |
| 2026-04-23 11:54 | 49.48732 | 2.44566 | 34368 ft | 462 kts | 331° |
| 2026-04-23 11:55 | 49.53953 | 2.38810 | 34365 ft | 464 kts | 320° |